createdAt,value
2023-05-13T00:00:40.283Z,41.07
2023-05-13T00:01:40.299Z,41.06
2023-05-13T00:02:40.379Z,41.05
2023-05-13T00:03:40.518Z,41.02
2023-05-13T00:04:40.394Z,41.02
2023-05-13T00:05:40.515Z,40.98
2023-05-13T00:06:40.775Z,40.98
2023-05-13T00:07:40.495Z,40.97
2023-05-13T00:08:40.539Z,40.98
2023-05-13T00:09:40.602Z,40.97
2023-05-13T00:10:40.642Z,40.96
2023-05-13T00:11:40.707Z,40.97
2023-05-13T00:12:40.738Z,40.98
2023-05-13T00:13:40.781Z,40.98
2023-05-13T00:14:40.848Z,40.97
2023-05-13T00:15:40.915Z,40.98
2023-05-13T00:16:41.093Z,40.99
2023-05-13T00:17:41.023Z,40.97
2023-05-13T00:18:41.056Z,40.97
2023-05-13T00:19:41.083Z,41.00
2023-05-13T00:20:41.128Z,40.99
2023-05-13T00:21:41.194Z,40.96
2023-05-13T00:22:41.282Z,40.97
2023-05-13T00:23:41.289Z,40.98
2023-05-13T00:24:41.339Z,40.99
2023-05-13T00:25:41.397Z,41.01
2023-05-13T00:26:41.435Z,41.01
2023-05-13T00:27:41.537Z,41.00
2023-05-13T00:28:41.552Z,40.99
2023-05-13T00:29:41.608Z,41.00
2023-05-13T00:30:41.649Z,41.01
2023-05-13T00:31:41.842Z,41.01
2023-05-13T00:32:41.781Z,41.02
2023-05-13T00:33:41.813Z,41.01
2023-05-13T00:34:41.829Z,41.02
2023-05-13T00:35:41.870Z,41.01
2023-05-13T00:36:41.938Z,41.00
2023-05-13T00:37:41.974Z,41.02
2023-05-13T00:38:42.028Z,41.00
2023-05-13T00:39:42.082Z,41.02
2023-05-13T00:40:42.132Z,41.01
2023-05-13T00:41:42.150Z,41.02
2023-05-13T00:42:42.219Z,41.04
2023-05-13T00:43:42.290Z,41.03
2023-05-13T00:44:42.302Z,41.04
2023-05-13T00:45:42.349Z,41.03
2023-05-13T00:46:42.377Z,41.04
2023-05-13T00:47:42.458Z,41.03
2023-05-13T00:48:42.481Z,41.04
2023-05-13T00:49:42.524Z,41.04
2023-05-13T00:50:42.566Z,41.03
2023-05-13T00:51:42.612Z,41.06
2023-05-13T00:52:42.664Z,41.07
2023-05-13T00:53:42.731Z,41.07
2023-05-13T00:54:42.777Z,41.05
2023-05-13T00:55:42.838Z,41.06
2023-05-13T00:56:42.879Z,41.05
2023-05-13T00:57:42.930Z,41.08
2023-05-13T00:58:42.973Z,41.05
2023-05-13T00:59:43.021Z,41.09
2023-05-13T01:00:43.040Z,41.09
2023-05-13T01:01:43.083Z,41.09
2023-05-13T01:02:43.245Z,41.08
2023-05-13T01:03:43.181Z,41.08
2023-05-13T01:04:43.229Z,41.06
2023-05-13T01:05:43.289Z,41.09
2023-05-13T01:06:43.335Z,41.08
2023-05-13T01:07:43.389Z,41.08
2023-05-13T01:08:43.443Z,41.09
2023-05-13T01:09:43.506Z,41.10
2023-05-13T01:10:43.546Z,41.08
2023-05-13T01:11:43.576Z,41.09
2023-05-13T01:12:43.625Z,41.08
2023-05-13T01:13:43.675Z,41.10
2023-05-13T01:14:43.729Z,41.09
2023-05-13T01:15:43.886Z,41.11
2023-05-13T01:16:43.923Z,41.09
2023-05-13T01:17:43.952Z,41.10
2023-05-13T01:18:43.988Z,41.11
2023-05-13T01:19:44.050Z,41.11
2023-05-13T01:20:44.054Z,41.14
2023-05-13T01:21:44.110Z,41.13
2023-05-13T01:22:44.175Z,41.12
2023-05-13T01:23:44.192Z,41.12
2023-05-13T01:24:44.290Z,41.12
2023-05-13T01:25:44.305Z,41.15
2023-05-13T01:26:44.369Z,41.15
2023-05-13T01:27:44.425Z,41.12
2023-05-13T01:28:44.474Z,41.16
2023-05-13T01:29:44.504Z,41.14
2023-05-13T01:30:44.542Z,41.15
2023-05-13T01:31:44.731Z,41.14
2023-05-13T01:32:44.673Z,41.18
2023-05-13T01:33:44.658Z,41.17
2023-05-13T01:34:44.719Z,41.17
2023-05-13T01:35:44.747Z,41.14
2023-05-13T01:36:44.792Z,41.16
2023-05-13T01:37:44.830Z,41.15
2023-05-13T01:38:44.866Z,41.18
2023-05-13T01:39:44.909Z,41.18
2023-05-13T01:40:44.947Z,41.15
2023-05-13T01:41:45.006Z,41.17
2023-05-13T01:42:45.025Z,41.17
2023-05-13T01:43:45.046Z,41.15
2023-05-13T01:44:45.081Z,41.18
2023-05-13T01:45:45.122Z,41.18
2023-05-13T01:46:45.212Z,41.17
2023-05-13T01:47:45.332Z,41.15
2023-05-13T01:48:45.294Z,41.19
2023-05-13T01:49:45.362Z,41.19
2023-05-13T01:50:45.427Z,41.18
2023-05-13T01:51:45.475Z,41.18
2023-05-13T01:52:45.541Z,41.18
2023-05-13T01:53:45.600Z,41.18
2023-05-13T01:54:45.672Z,41.19
2023-05-13T01:55:45.728Z,41.19
2023-05-13T01:56:45.785Z,41.18
2023-05-13T01:57:45.853Z,41.18
2023-05-13T01:58:45.903Z,41.19
2023-05-13T01:59:45.954Z,41.19
2023-05-13T02:00:46.000Z,41.21
2023-05-13T02:01:46.120Z,41.19
2023-05-13T02:02:46.128Z,41.18
2023-05-13T02:03:46.204Z,41.20
2023-05-13T02:04:46.150Z,41.22
2023-05-13T02:05:46.197Z,41.20
2023-05-13T02:06:46.222Z,41.21
2023-05-13T02:07:46.276Z,41.21
2023-05-13T02:08:46.333Z,41.23
2023-05-13T02:09:46.401Z,41.19
2023-05-13T02:10:46.446Z,41.21
2023-05-13T02:11:46.535Z,41.23
2023-05-13T02:12:46.572Z,41.19
2023-05-13T02:13:46.627Z,41.24
2023-05-13T02:14:46.698Z,41.24
2023-05-13T02:15:46.744Z,41.20
2023-05-13T02:16:46.864Z,41.25
2023-05-13T02:17:46.871Z,41.24
2023-05-13T02:18:46.938Z,41.24
2023-05-13T02:19:47.001Z,41.24
2023-05-13T02:20:47.032Z,41.24
2023-05-13T02:21:47.076Z,41.25
2023-05-13T02:22:47.127Z,41.21
2023-05-13T02:23:47.179Z,41.24
2023-05-13T02:24:47.240Z,41.23
2023-05-13T02:25:47.313Z,41.24
2023-05-13T02:26:47.338Z,41.26
2023-05-13T02:27:47.456Z,41.25
2023-05-13T02:28:47.469Z,41.24
2023-05-13T02:29:47.537Z,41.27
2023-05-13T02:30:47.578Z,41.25
2023-05-13T02:31:47.699Z,41.24
2023-05-13T02:32:47.758Z,41.24
2023-05-13T02:33:47.767Z,41.24
2023-05-13T02:34:47.810Z,41.25
2023-05-13T02:35:47.869Z,41.27
2023-05-13T02:36:47.906Z,41.26
2023-05-13T02:37:47.961Z,41.25
2023-05-13T02:38:48.030Z,41.24
2023-05-13T02:39:48.099Z,41.26
2023-05-13T02:40:48.153Z,41.27
2023-05-13T02:41:48.198Z,41.28
2023-05-13T02:42:48.263Z,41.26
2023-05-13T02:43:48.331Z,41.26
2023-05-13T02:44:48.403Z,41.29
2023-05-13T02:45:48.468Z,41.30
2023-05-13T02:46:48.505Z,41.29
2023-05-13T02:47:48.636Z,41.29
2023-05-13T02:48:48.636Z,41.31
2023-05-13T02:49:48.803Z,41.29
2023-05-13T02:50:48.727Z,41.28
2023-05-13T02:51:48.773Z,41.32
2023-05-13T02:52:48.814Z,41.30
2023-05-13T02:53:48.876Z,41.30
2023-05-13T02:54:49.116Z,41.33
2023-05-13T02:55:48.939Z,41.31
2023-05-13T02:56:48.986Z,41.31
2023-05-13T02:57:49.024Z,41.31
2023-05-13T02:58:49.062Z,41.31
2023-05-13T02:59:49.129Z,41.31
2023-05-13T03:00:49.186Z,41.32
2023-05-13T03:01:49.345Z,41.32
2023-05-13T03:02:49.359Z,41.31
2023-05-13T03:03:49.478Z,41.32
2023-05-13T03:04:49.430Z,41.32
2023-05-13T03:05:49.498Z,41.33
2023-05-13T03:06:49.544Z,41.32
2023-05-13T03:07:49.653Z,41.32
2023-05-13T03:08:49.685Z,41.33
2023-05-13T03:09:49.731Z,41.34
2023-05-13T03:10:49.768Z,41.33
2023-05-13T03:11:49.805Z,41.32
2023-05-13T03:12:49.851Z,41.31
2023-05-13T03:13:49.925Z,41.34
2023-05-13T03:14:49.958Z,41.32
2023-05-13T03:15:50.065Z,41.32
2023-05-13T03:16:50.068Z,41.31
2023-05-13T03:17:50.189Z,41.32
2023-05-13T03:18:50.277Z,41.35
2023-05-13T03:19:50.250Z,41.33
2023-05-13T03:20:50.313Z,41.33
2023-05-13T03:21:50.383Z,41.34
2023-05-13T03:22:50.433Z,41.33
2023-05-13T03:23:50.520Z,41.37
2023-05-13T03:24:50.547Z,41.34
2023-05-13T03:25:50.597Z,41.34
2023-05-13T03:26:50.650Z,41.32
2023-05-13T03:27:50.678Z,41.35
2023-05-13T03:28:50.731Z,41.34
2023-05-13T03:29:50.780Z,41.38
2023-05-13T03:30:50.875Z,41.37
2023-05-13T03:31:50.963Z,41.36
2023-05-13T03:32:51.042Z,41.35
2023-05-13T03:33:51.026Z,41.36
2023-05-13T03:34:51.078Z,41.34
2023-05-13T03:35:51.154Z,41.37
2023-05-13T03:36:51.194Z,41.36
2023-05-13T03:37:51.254Z,41.35
2023-05-13T03:38:51.312Z,41.37
2023-05-13T03:39:51.382Z,41.38
2023-05-13T03:40:51.383Z,41.38
2023-05-13T03:41:51.426Z,41.39
2023-05-13T03:42:51.457Z,41.36
2023-05-13T03:43:51.494Z,41.38
2023-05-13T03:44:51.557Z,41.38
2023-05-13T03:45:51.615Z,41.36
2023-05-13T03:46:51.711Z,41.37
2023-05-13T03:47:51.753Z,41.38
2023-05-13T03:48:51.781Z,41.37
2023-05-13T03:49:51.842Z,41.38
2023-05-13T03:50:51.872Z,41.38
2023-05-13T03:51:51.905Z,41.36
2023-05-13T03:52:51.940Z,41.39
2023-05-13T03:53:51.984Z,41.38
2023-05-13T03:54:52.021Z,41.38
2023-05-13T03:55:52.109Z,41.38
2023-05-13T03:56:52.141Z,41.38
2023-05-13T03:57:52.196Z,41.38
2023-05-13T03:58:52.260Z,41.37
2023-05-13T03:59:52.329Z,41.38
2023-05-13T04:00:52.393Z,41.40
2023-05-13T04:01:52.490Z,41.40
2023-05-13T04:02:52.734Z,41.39
2023-05-13T04:03:52.580Z,41.38
2023-05-13T04:04:52.765Z,41.38
2023-05-13T04:05:52.723Z,41.39
2023-05-13T04:06:52.764Z,41.40
2023-05-13T04:07:52.829Z,41.39
2023-05-13T04:08:52.896Z,41.38
2023-05-13T04:09:52.956Z,41.40
2023-05-13T04:10:53.008Z,41.41
2023-05-13T04:11:53.114Z,41.40
2023-05-13T04:12:53.186Z,41.40
2023-05-13T04:13:53.195Z,41.41
2023-05-13T04:14:53.256Z,41.40
2023-05-13T04:15:53.314Z,41.42
2023-05-13T04:16:53.407Z,41.41
2023-05-13T04:17:53.416Z,41.42
2023-05-13T04:18:53.484Z,41.41
2023-05-13T04:19:53.529Z,41.42
2023-05-13T04:20:53.562Z,41.39
2023-05-13T04:21:53.692Z,41.43
2023-05-13T04:22:53.684Z,41.43
2023-05-13T04:23:53.744Z,41.45
2023-05-13T04:24:53.820Z,41.43
2023-05-13T04:25:53.890Z,41.41
2023-05-13T04:26:53.923Z,41.43
2023-05-13T04:27:53.990Z,41.41
2023-05-13T04:28:54.019Z,41.43
2023-05-13T04:29:54.074Z,41.42
2023-05-13T04:30:54.136Z,41.42
2023-05-13T04:31:54.211Z,41.43
2023-05-13T04:32:54.304Z,41.43
2023-05-13T04:33:54.309Z,41.43
2023-05-13T04:34:54.354Z,41.44
2023-05-13T04:35:54.403Z,41.45
2023-05-13T04:36:54.460Z,41.43
2023-05-13T04:37:54.531Z,41.44
2023-05-13T04:38:54.579Z,41.43
2023-05-13T04:39:54.624Z,41.46
2023-05-13T04:40:54.685Z,41.46
2023-05-13T04:41:54.739Z,41.46
2023-05-13T04:42:55.206Z,41.45
2023-05-13T04:43:54.937Z,41.46
2023-05-13T04:44:54.886Z,41.45
2023-05-13T04:45:54.944Z,41.46
2023-05-13T04:46:54.978Z,41.45
2023-05-13T04:47:56.922Z,41.44
2023-05-13T04:48:55.040Z,41.45
2023-05-13T04:49:55.031Z,41.44
2023-05-13T04:50:55.027Z,41.45
2023-05-13T04:51:55.018Z,41.46
2023-05-13T04:52:55.055Z,41.46
2023-05-13T04:53:55.000Z,41.47
2023-05-13T04:54:54.991Z,41.48
2023-05-13T04:55:54.990Z,41.46
2023-05-13T04:56:54.985Z,41.47
2023-05-13T04:57:54.982Z,41.46
2023-05-13T04:58:54.968Z,41.50
2023-05-13T04:59:54.978Z,41.49
2023-05-13T05:00:54.950Z,41.47
2023-05-13T05:01:55.028Z,41.48
2023-05-13T05:02:54.950Z,41.44
2023-05-13T05:03:54.984Z,41.48
2023-05-13T05:04:54.928Z,41.46
2023-05-13T05:05:54.920Z,41.47
2023-05-13T05:06:54.912Z,41.47
2023-05-13T05:07:54.913Z,41.49
2023-05-13T05:08:55.892Z,41.49
2023-05-13T05:09:55.040Z,41.47
2023-05-13T05:10:55.082Z,41.49
2023-05-13T05:11:55.118Z,41.47
2023-05-13T05:12:55.172Z,41.48
2023-05-13T05:13:55.262Z,41.50
2023-05-13T05:14:55.304Z,41.49
2023-05-13T05:15:55.434Z,41.48
2023-05-13T05:16:55.431Z,41.46
2023-05-13T05:17:55.543Z,41.50
2023-05-13T05:18:55.697Z,41.49
2023-05-13T05:19:55.578Z,41.49
2023-05-13T05:20:55.637Z,41.51
2023-05-13T05:21:55.702Z,41.50
2023-05-13T05:22:55.760Z,41.50
2023-05-13T05:23:55.850Z,41.49
2023-05-13T05:24:55.883Z,41.51
2023-05-13T05:26:04.462Z,41.48
2023-05-13T05:26:55.944Z,41.52
2023-05-13T05:27:55.921Z,41.51
2023-05-13T05:28:55.926Z,41.50
2023-05-13T05:29:55.910Z,41.49
2023-05-13T05:30:55.907Z,41.52
2023-05-13T05:31:55.978Z,41.48
2023-05-13T05:32:55.921Z,41.50
2023-05-13T05:33:55.888Z,41.49
2023-05-13T05:34:55.881Z,41.49
2023-05-13T05:35:55.872Z,41.50
2023-05-13T05:36:55.876Z,41.47
2023-05-13T05:37:55.852Z,41.49
2023-05-13T05:38:55.854Z,41.49
2023-05-13T05:39:55.844Z,41.49
2023-05-13T05:40:55.837Z,41.51
2023-05-13T05:41:55.835Z,41.48
2023-05-13T05:42:55.822Z,41.50
2023-05-13T05:43:55.820Z,41.49
2023-05-13T05:44:55.823Z,41.50
2023-05-13T05:45:55.881Z,41.49
2023-05-13T05:46:55.815Z,41.50
2023-05-13T05:47:55.882Z,41.49
2023-05-13T05:48:55.914Z,41.48
2023-05-13T05:49:55.790Z,41.49
2023-05-13T05:50:55.767Z,41.48
2023-05-13T05:51:55.841Z,41.50
2023-05-13T05:52:55.864Z,41.50
2023-05-13T05:53:55.926Z,41.52
2023-05-13T05:54:55.990Z,41.47
2023-05-13T05:55:56.051Z,41.44
2023-05-13T05:56:56.111Z,41.43
2023-05-13T05:57:56.137Z,41.46
2023-05-13T05:58:56.195Z,41.42
2023-05-13T05:59:56.259Z,41.37
2023-05-13T06:00:56.322Z,41.41
2023-05-13T06:01:56.404Z,41.34
2023-05-13T06:02:56.511Z,41.32
2023-05-13T06:03:56.570Z,41.32
2023-05-13T06:04:56.536Z,41.33
2023-05-13T06:05:56.601Z,41.43
2023-05-13T06:06:56.713Z,41.39
2023-05-13T06:07:56.687Z,41.40
2023-05-13T06:08:56.739Z,41.44
2023-05-13T06:09:56.784Z,41.57
2023-05-13T06:10:56.839Z,41.71
2023-05-13T06:11:56.884Z,41.76
2023-05-13T06:12:56.907Z,41.81
2023-05-13T06:13:56.951Z,41.83
2023-05-13T06:14:56.967Z,41.84
2023-05-13T06:15:57.957Z,41.74
2023-05-13T06:16:57.023Z,41.79
2023-05-13T06:17:57.118Z,41.82
2023-05-13T06:18:57.099Z,41.91
2023-05-13T06:19:57.135Z,41.97
2023-05-13T06:20:57.140Z,42.00
2023-05-13T06:21:57.174Z,42.01
2023-05-13T06:22:57.204Z,42.09
2023-05-13T06:23:57.238Z,42.13
2023-05-13T06:24:57.259Z,42.18
2023-05-13T06:25:57.295Z,42.24
2023-05-13T06:26:57.313Z,42.23
2023-05-13T06:27:57.332Z,42.32
2023-05-13T06:28:57.360Z,42.34
2023-05-13T06:29:57.382Z,42.39
2023-05-13T06:30:57.479Z,42.39
2023-05-13T06:31:57.403Z,42.40
2023-05-13T06:33:01.479Z,42.45
2023-05-13T06:33:57.416Z,42.46
2023-05-13T06:34:57.393Z,42.48
2023-05-13T06:35:57.422Z,42.46
2023-05-13T06:36:57.374Z,42.50
2023-05-13T06:37:57.368Z,42.55
2023-05-13T06:38:57.364Z,42.59
2023-05-13T06:39:57.357Z,42.60
2023-05-13T06:40:57.345Z,42.61
2023-05-13T06:41:57.338Z,42.66
2023-05-13T06:42:57.321Z,42.66
2023-05-13T06:43:57.319Z,42.76
2023-05-13T06:44:57.324Z,42.75
2023-05-13T06:45:57.320Z,42.82
2023-05-13T06:46:57.333Z,42.80
2023-05-13T06:47:57.384Z,42.74
2023-05-13T06:48:57.289Z,42.75
2023-05-13T06:49:57.283Z,42.79
2023-05-13T06:50:57.285Z,42.86
2023-05-13T06:51:57.298Z,42.93
2023-05-13T06:52:57.274Z,42.94
2023-05-13T06:53:57.274Z,42.99
2023-05-13T06:54:57.261Z,42.95
2023-05-13T06:55:57.248Z,43.00
2023-05-13T06:56:57.258Z,43.05
2023-05-13T06:57:57.257Z,43.05
2023-05-13T06:58:57.231Z,43.12
2023-05-13T06:59:57.224Z,43.17
2023-05-13T07:00:57.283Z,43.19
2023-05-13T07:01:57.210Z,43.23
2023-05-13T07:02:57.247Z,43.29
2023-05-13T07:03:57.244Z,43.31
2023-05-13T07:04:57.186Z,43.32
2023-05-13T07:05:57.183Z,43.33
2023-05-13T07:06:57.181Z,43.38
2023-05-13T07:07:57.210Z,43.38
2023-05-13T07:08:57.161Z,43.40
2023-05-13T07:09:57.170Z,43.41
2023-05-13T07:10:57.145Z,43.44
2023-05-13T07:11:57.136Z,43.47
2023-05-13T07:12:57.170Z,43.50
2023-05-13T07:13:57.132Z,43.53
2023-05-13T07:14:57.123Z,43.55
2023-05-13T07:15:57.127Z,43.56
2023-05-13T07:16:57.124Z,43.64
2023-05-13T07:17:57.124Z,43.68
2023-05-13T07:18:57.134Z,43.69
2023-05-13T07:19:57.095Z,43.71
2023-05-13T07:20:57.101Z,43.75
2023-05-13T07:21:57.080Z,43.75
2023-05-13T07:22:57.083Z,43.74
2023-05-13T07:23:57.090Z,43.78
2023-05-13T07:24:57.087Z,43.79
2023-05-13T07:25:57.042Z,43.77
2023-05-13T07:26:57.038Z,43.83
2023-05-13T07:27:57.047Z,43.89
2023-05-13T07:28:57.023Z,43.85
2023-05-13T07:29:57.017Z,43.93
2023-05-13T07:30:57.043Z,43.93
2023-05-13T07:31:57.006Z,43.93
2023-05-13T07:32:57.028Z,43.95
2023-05-13T07:33:57.021Z,43.96
2023-05-13T07:34:57.010Z,43.93
2023-05-13T07:35:56.977Z,43.98
2023-05-13T07:36:56.975Z,44.01
2023-05-13T07:37:56.971Z,43.97
2023-05-13T07:38:56.965Z,44.01
2023-05-13T07:39:56.976Z,44.11
2023-05-13T07:40:56.950Z,44.10
2023-05-13T07:41:56.938Z,44.13
2023-05-13T07:42:56.962Z,44.15
2023-05-13T07:43:56.924Z,44.20
2023-05-13T07:44:56.924Z,44.19
2023-05-13T07:45:56.913Z,44.20
2023-05-13T07:46:56.945Z,44.24
2023-05-13T07:47:56.968Z,44.25
2023-05-13T07:48:56.894Z,44.24
2023-05-13T07:49:56.876Z,44.24
2023-05-13T07:50:56.869Z,44.23
2023-05-13T07:51:56.886Z,44.21
2023-05-13T07:52:56.869Z,44.25
2023-05-13T07:53:56.860Z,44.23
2023-05-13T07:54:56.843Z,44.17
2023-05-13T07:55:56.858Z,44.19
2023-05-13T07:56:56.830Z,44.16
2023-05-13T07:57:56.830Z,44.11
2023-05-13T07:58:56.821Z,44.02
2023-05-13T07:59:56.834Z,43.98
2023-05-13T08:00:56.803Z,43.89
2023-05-13T08:01:56.808Z,43.89
2023-05-13T08:02:56.894Z,43.83
2023-05-13T08:03:57.092Z,43.85
2023-05-13T08:04:56.793Z,43.86
2023-05-13T08:05:56.777Z,43.87
2023-05-13T08:06:56.779Z,43.85
2023-05-13T08:07:56.798Z,43.88
2023-05-13T08:08:56.801Z,43.93
2023-05-13T08:09:56.800Z,43.94
2023-05-13T08:10:56.802Z,44.05
2023-05-13T08:11:56.831Z,44.09
2023-05-13T08:12:56.798Z,44.12
2023-05-13T08:13:56.866Z,44.11
2023-05-13T08:14:56.916Z,44.13
2023-05-13T08:15:56.979Z,44.13
2023-05-13T08:16:56.946Z,44.18
2023-05-13T08:17:57.019Z,44.25
2023-05-13T08:18:57.023Z,44.22
2023-05-13T08:19:56.949Z,44.23
2023-05-13T08:20:56.953Z,44.25
2023-05-13T08:21:56.948Z,44.28
2023-05-13T08:22:56.937Z,44.27
2023-05-13T08:23:56.946Z,44.23
2023-05-13T08:24:56.942Z,44.28
2023-05-13T08:25:56.936Z,44.27
2023-05-13T08:26:56.961Z,44.28
2023-05-13T08:27:57.041Z,44.29
2023-05-13T08:28:57.013Z,44.34
2023-05-13T08:29:57.098Z,44.37
2023-05-13T08:30:57.084Z,44.41
2023-05-13T08:31:57.114Z,44.41
2023-05-13T08:32:57.106Z,44.38
2023-05-13T08:33:57.081Z,44.41
2023-05-13T08:34:57.105Z,44.47
2023-05-13T08:35:57.082Z,44.48
2023-05-13T08:36:57.089Z,44.51
2023-05-13T08:37:57.132Z,44.54
2023-05-13T08:38:57.096Z,44.51
2023-05-13T08:39:57.093Z,44.57
2023-05-13T08:40:57.130Z,44.56
2023-05-13T08:41:57.109Z,44.57
2023-05-13T08:42:57.097Z,44.60
2023-05-13T08:43:57.198Z,44.60
2023-05-13T08:44:57.147Z,44.63
2023-05-13T08:45:57.228Z,44.64
2023-05-13T08:46:57.265Z,44.64
2023-05-13T08:47:57.348Z,44.67
2023-05-13T08:48:57.380Z,44.67
2023-05-13T08:49:57.445Z,44.68
2023-05-13T08:50:57.557Z,44.71
2023-05-13T08:51:57.585Z,44.72
2023-05-13T08:52:57.632Z,44.75
2023-05-13T08:53:57.650Z,44.74
2023-05-13T08:54:57.670Z,44.82
2023-05-13T08:55:57.726Z,44.85
2023-05-13T08:56:57.791Z,44.80
2023-05-13T08:57:57.795Z,44.85
2023-05-13T08:58:57.805Z,44.87
2023-05-13T08:59:57.836Z,44.88
2023-05-13T09:00:57.908Z,44.93
2023-05-13T09:01:57.815Z,44.92
2023-05-13T09:02:57.888Z,44.92
2023-05-13T09:03:57.864Z,44.96
2023-05-13T09:04:57.879Z,45.00
2023-05-13T09:05:57.908Z,45.04
2023-05-13T09:06:57.925Z,45.05
2023-05-13T09:07:57.957Z,45.07
2023-05-13T09:08:58.014Z,45.08
2023-05-13T09:09:58.012Z,45.12
2023-05-13T09:10:58.062Z,45.10
2023-05-13T09:11:58.077Z,45.16
2023-05-13T09:12:58.096Z,45.15
2023-05-13T09:13:58.154Z,45.18
2023-05-13T09:14:58.207Z,45.16
2023-05-13T09:15:58.322Z,45.13
2023-05-13T09:16:58.262Z,45.20
2023-05-13T09:17:58.388Z,45.21
2023-05-13T09:18:58.442Z,45.24
2023-05-13T09:19:58.405Z,45.23
2023-05-13T09:20:58.406Z,45.24
2023-05-13T09:21:58.423Z,45.22
2023-05-13T09:22:58.494Z,45.30
2023-05-13T09:23:58.516Z,45.34
2023-05-13T09:24:58.572Z,45.34
2023-05-13T09:25:58.624Z,45.35
2023-05-13T09:26:58.680Z,45.41
2023-05-13T09:27:59.049Z,45.39
2023-05-13T09:28:58.755Z,45.39
2023-05-13T09:29:58.804Z,45.40
2023-05-13T09:30:58.896Z,45.39
2023-05-13T09:31:59.002Z,45.39
2023-05-13T09:32:58.965Z,45.36
2023-05-13T09:33:58.951Z,45.35
2023-05-13T09:34:58.950Z,45.42
2023-05-13T09:35:58.959Z,45.39
2023-05-13T09:36:58.989Z,45.37
2023-05-13T09:37:58.987Z,45.44
2023-05-13T09:38:58.982Z,45.40
2023-05-13T09:39:58.986Z,45.40
2023-05-13T09:40:58.981Z,45.37
2023-05-13T09:41:58.978Z,45.37
2023-05-13T09:42:58.972Z,45.36
2023-05-13T09:43:58.984Z,45.35
2023-05-13T09:44:58.976Z,45.31
2023-05-13T09:45:58.979Z,45.30
2023-05-13T09:46:59.038Z,45.24
2023-05-13T09:47:59.070Z,45.17
2023-05-13T09:48:59.008Z,45.11
2023-05-13T09:49:59.015Z,45.09
2023-05-13T09:50:59.012Z,45.06
2023-05-13T09:51:59.022Z,45.03
2023-05-13T09:52:59.046Z,44.97
2023-05-13T09:53:59.067Z,44.97
2023-05-13T09:54:59.095Z,44.94
2023-05-13T09:55:59.118Z,44.94
2023-05-13T09:56:59.133Z,44.90
2023-05-13T09:57:59.120Z,44.88
2023-05-13T09:58:59.199Z,44.85
2023-05-13T09:59:59.137Z,44.78
2023-05-13T10:00:59.252Z,44.74
2023-05-13T10:01:59.140Z,44.76
2023-05-13T10:02:59.171Z,44.80
2023-05-13T10:03:59.225Z,44.86
2023-05-13T10:04:59.153Z,44.86
2023-05-13T10:06:01.287Z,44.91
2023-05-13T10:06:59.157Z,44.97
2023-05-13T10:07:59.140Z,44.98
2023-05-13T10:08:59.165Z,44.95
2023-05-13T10:09:59.129Z,44.89
2023-05-13T10:10:59.112Z,44.87
2023-05-13T10:11:59.103Z,44.92
2023-05-13T10:12:59.103Z,44.97
2023-05-13T10:13:59.096Z,44.92
2023-05-13T10:14:59.097Z,44.92
2023-05-13T10:15:59.079Z,44.89
2023-05-13T10:16:59.253Z,44.88
2023-05-13T10:17:59.135Z,44.83
2023-05-13T10:18:59.130Z,44.86
2023-05-13T10:19:59.084Z,44.83
2023-05-13T10:20:59.055Z,44.86
2023-05-13T10:21:59.058Z,44.90
2023-05-13T10:22:59.037Z,44.88
2023-05-13T10:23:59.033Z,44.89
2023-05-13T10:24:59.022Z,44.90
2023-05-13T10:25:59.029Z,44.87
2023-05-13T10:26:59.026Z,44.85
2023-05-13T10:27:59.011Z,44.88
2023-05-13T10:28:59.000Z,44.85
2023-05-13T10:30:00.527Z,44.84
2023-05-13T10:30:58.993Z,44.83
2023-05-13T10:31:59.040Z,44.82
2023-05-13T10:32:59.016Z,44.83
2023-05-13T10:33:58.964Z,44.85
2023-05-13T10:34:58.953Z,44.82
2023-05-13T10:35:58.975Z,44.84
2023-05-13T10:36:58.945Z,44.88
2023-05-13T10:37:58.924Z,44.89
2023-05-13T10:38:58.918Z,44.89
2023-05-13T10:39:58.920Z,44.88
2023-05-13T10:40:58.906Z,44.88
2023-05-13T10:41:58.904Z,44.85
2023-05-13T10:42:58.904Z,44.87
2023-05-13T10:43:58.912Z,44.85
2023-05-13T10:44:58.899Z,44.88
2023-05-13T10:45:58.906Z,44.84
2023-05-13T10:46:58.867Z,44.89
2023-05-13T10:47:58.996Z,44.86
2023-05-13T10:48:58.883Z,44.89
2023-05-13T10:49:58.846Z,44.90
2023-05-13T10:50:58.845Z,44.86
2023-05-13T10:51:58.883Z,44.88
2023-05-13T10:52:58.839Z,44.85
2023-05-13T10:53:58.825Z,44.84
2023-05-13T10:54:58.823Z,44.85
2023-05-13T10:55:58.816Z,44.81
2023-05-13T10:56:58.812Z,44.80
2023-05-13T10:57:58.811Z,44.74
2023-05-13T10:58:58.810Z,44.71
2023-05-13T10:59:58.794Z,44.65
2023-05-13T11:00:58.790Z,44.66
2023-05-13T11:01:58.872Z,44.64
2023-05-13T11:02:58.876Z,44.65
2023-05-13T11:03:59.099Z,44.68
2023-05-13T11:04:58.767Z,44.70
2023-05-13T11:05:58.780Z,44.71
2023-05-13T11:06:58.755Z,44.69
2023-05-13T11:07:58.766Z,44.70
2023-05-13T11:08:58.725Z,44.69
2023-05-13T11:09:58.727Z,44.68
2023-05-13T11:10:58.717Z,44.70
2023-05-13T11:11:58.714Z,44.71
2023-05-13T11:12:58.704Z,44.67
2023-05-13T11:13:58.705Z,44.70
2023-05-13T11:14:58.692Z,44.69
2023-05-13T11:15:58.786Z,44.71
2023-05-13T11:16:58.674Z,44.67
2023-05-13T11:17:58.684Z,44.67
2023-05-13T11:18:58.701Z,44.67
2023-05-13T11:19:58.664Z,44.68
2023-05-13T11:20:58.667Z,44.65
2023-05-13T11:21:58.655Z,44.63
2023-05-13T11:22:58.646Z,44.61
2023-05-13T11:23:58.660Z,44.59
2023-05-13T11:24:58.632Z,44.58
2023-05-13T11:25:58.629Z,44.59
2023-05-13T11:26:58.627Z,44.60
2023-05-13T11:27:58.625Z,44.61
2023-05-13T11:28:58.622Z,44.58
2023-05-13T11:29:58.594Z,44.56
2023-05-13T11:30:58.619Z,44.57
2023-05-13T11:32:00.602Z,44.57
2023-05-13T11:32:58.714Z,44.57
2023-05-13T11:33:58.570Z,44.55
2023-05-13T11:34:58.568Z,44.56
2023-05-13T11:35:58.556Z,44.52
2023-05-13T11:36:58.574Z,44.52
2023-05-13T11:38:00.130Z,44.46
2023-05-13T11:38:58.533Z,44.48
2023-05-13T11:39:58.550Z,44.46
2023-05-13T11:40:58.529Z,44.49
2023-05-13T11:41:58.517Z,44.44
2023-05-13T11:42:58.504Z,44.43
2023-05-13T11:43:58.501Z,44.41
2023-05-13T11:44:58.489Z,44.44
2023-05-13T11:45:58.502Z,44.44
2023-05-13T11:46:58.481Z,44.41
2023-05-13T11:47:58.477Z,44.44
2023-05-13T11:48:58.459Z,44.38
2023-05-13T11:49:58.453Z,44.32
2023-05-13T11:50:58.453Z,44.30
2023-05-13T11:51:58.444Z,44.23
2023-05-13T11:52:58.425Z,44.18
2023-05-13T11:53:58.426Z,44.16
2023-05-13T11:54:58.413Z,44.19
2023-05-13T11:55:58.441Z,44.19
2023-05-13T11:56:58.412Z,44.17
2023-05-13T11:57:58.390Z,44.19
2023-05-13T11:58:58.386Z,44.19
2023-05-13T11:59:58.373Z,44.21
2023-05-13T12:00:58.360Z,44.20
2023-05-13T12:01:58.384Z,44.17
2023-05-13T12:02:58.559Z,44.18
2023-05-13T12:03:58.346Z,44.16
2023-05-13T12:04:58.370Z,44.20
2023-05-13T12:05:58.332Z,44.22
2023-05-13T12:06:58.320Z,44.22
2023-05-13T12:07:58.489Z,44.25
2023-05-13T12:08:58.308Z,44.23
2023-05-13T12:09:58.331Z,44.22
2023-05-13T12:10:58.300Z,44.23
2023-05-13T12:11:58.319Z,44.23
2023-05-13T12:12:58.280Z,44.28
2023-05-13T12:13:58.276Z,44.25
2023-05-13T12:14:58.270Z,44.26
2023-05-13T12:15:58.309Z,44.26
2023-05-13T12:16:58.243Z,44.29
2023-05-13T12:17:58.291Z,44.26
2023-05-13T12:18:58.287Z,44.28
2023-05-13T12:19:58.228Z,44.25
2023-05-13T12:20:58.248Z,44.27
2023-05-13T12:21:58.215Z,44.25
2023-05-13T12:22:58.222Z,44.24
2023-05-13T12:23:58.201Z,44.23
2023-05-13T12:24:58.200Z,44.23
2023-05-13T12:25:58.200Z,44.24
2023-05-13T12:26:58.178Z,44.22
2023-05-13T12:27:58.201Z,44.15
2023-05-13T12:28:58.163Z,44.16
2023-05-13T12:29:58.163Z,44.11
2023-05-13T12:30:58.316Z,44.11
2023-05-13T12:31:58.177Z,44.11
2023-05-13T12:32:58.148Z,44.08
2023-05-13T12:33:58.134Z,44.12
2023-05-13T12:34:58.168Z,44.10
2023-05-13T12:35:58.119Z,44.10
2023-05-13T12:36:58.138Z,44.10
2023-05-13T12:37:58.104Z,44.09
2023-05-13T12:39:00.050Z,44.08
2023-05-13T12:39:58.087Z,44.06
2023-05-13T12:40:58.081Z,44.09
2023-05-13T12:41:58.072Z,44.03
2023-05-13T12:42:58.096Z,44.04
2023-05-13T12:43:58.116Z,44.02
2023-05-13T12:44:58.053Z,44.06
2023-05-13T12:45:58.049Z,44.04
2023-05-13T12:46:58.183Z,44.06
2023-05-13T12:47:58.089Z,44.02
2023-05-13T12:48:58.032Z,44.05
2023-05-13T12:49:58.024Z,44.05
2023-05-13T12:50:59.588Z,44.05
2023-05-13T12:51:58.002Z,44.06
2023-05-13T12:52:58.065Z,44.05